Time;durP1;ratioP1;P1;durP2;ratioP2;P2;SDS_P1;SDS_P2;PMS_P1;PMS_P2;Temp;Humidity;BMP_temperature;BMP_pressure;BME280_temperature;BME280_humidity;BME280_pressure;Samples;Min_cycle;Max_cycle;Signal;HPM_P1;HPM_P2
2021/08/06 00:00:25;;;;;;;;;0.75;0.75;;;;;19.95;81.21;99996.38;5052561;28;46256;-59
2021/08/06 00:02:51;;;;;;;;;6.00;3.75;;;;;19.94;81.25;100013.16;5052135;28;45463;-59
2021/08/06 00:05:16;;;;;;;;;3.00;2.75;;;;;19.91;81.62;100006.31;5052395;28;45669;-59
2021/08/06 00:07:41;;;;;;;;;4.00;3.00;;;;;19.90;81.35;100004.66;5051355;28;45501;-59
2021/08/06 00:10:07;;;;;;;;;4.00;3.25;;;;;19.89;81.10;99999.50;5052244;28;45249;-59
2021/08/06 00:12:33;;;;;;;;;3.00;3.00;;;;;19.85;81.08;100004.19;5052913;28;45464;-60
2021/08/06 00:14:58;;;;;;;;;3.00;2.75;;;;;19.77;81.26;100005.72;5052376;28;45383;-61
2021/08/06 00:17:23;;;;;;;;;3.75;3.50;;;;;19.73;81.83;100002.47;5052182;28;45505;-61
2021/08/06 00:19:49;;;;;;;;;2.00;2.00;;;;;19.72;81.54;100006.91;5051976;28;46305;-62
2021/08/06 00:22:14;;;;;;;;;3.00;2.00;;;;;19.74;81.41;100009.44;5051558;28;45398;-60
2021/08/06 00:24:40;;;;;;;;;3.00;2.25;;;;;19.75;81.15;100008.47;5052291;28;45421;-60
2021/08/06 00:27:06;;;;;;;;;4.75;2.50;;;;;19.72;81.03;100012.19;5051301;28;45549;-60
2021/08/06 00:29:31;;;;;;;;;5.00;2.75;;;;;19.67;81.63;100010.88;5052351;28;45429;-60
2021/08/06 00:31:57;;;;;;;;;2.00;1.00;;;;;19.66;80.89;100006.56;5060438;28;45323;-60
2021/08/06 00:34:22;;;;;;;;;2.25;2.25;;;;;19.64;81.33;100016.38;5060865;28;45263;-59
2021/08/06 00:36:47;;;;;;;;;3.50;1.75;;;;;19.64;81.28;100011.94;5060390;28;45249;-59
2021/08/06 00:39:13;;;;;;;;;7.00;7.00;;;;;19.63;80.71;100009.44;5060647;28;46428;-59
2021/08/06 00:41:38;;;;;;;;;4.25;3.75;;;;;19.66;80.37;100014.47;5060437;28;45348;-59
2021/08/06 00:44:05;;;;;;;;;2.75;2.75;;;;;19.63;80.31;100014.72;5070075;28;45373;-59
2021/08/06 00:46:30;;;;;;;;;2.50;1.75;;;;;19.61;80.51;100013.94;5060250;28;45371;-59
2021/08/06 00:48:56;;;;;;;;;3.50;2.00;;;;;19.68;80.15;100007.28;5060033;28;45215;-59
2021/08/06 00:51:22;;;;;;;;;1.00;1.00;;;;;19.69;79.94;100014.22;5060351;28;45218;-59
2021/08/06 00:53:48;;;;;;;;;3.25;2.00;;;;;19.66;80.39;100004.75;5060037;28;45376;-59
2021/08/06 00:56:13;;;;;;;;;5.75;3.00;;;;;19.68;80.29;100012.53;5060459;28;45242;-60
2021/08/06 00:58:39;;;;;;;;;4.25;2.50;;;;;19.68;80.37;100012.53;5059621;28;46092;-60
2021/08/06 01:01:05;;;;;;;;;2.50;1.75;;;;;19.63;80.35;100012.91;5059954;28;45473;-60
2021/08/06 01:04:03;;;;;;;;;2.00;2.00;;;;;19.67;79.76;100016.13;5060021;28;45286;-60
2021/08/06 01:06:41;;;;;;;;;2.75;2.75;;;;;19.69;79.80;100017.69;5058641;28;45305;-60
2021/08/06 01:09:22;;;;;;;;;3.00;2.00;;;;;19.72;79.78;100013.97;5060071;28;46158;-59
2021/08/06 01:11:54;;;;;;;;;3.25;2.25;;;;;19.75;80.25;100014.59;5056209;28;45656;-59
2021/08/06 01:14:23;;;;;;;;;4.25;2.75;;;;;19.67;79.83;100009.06;5059502;28;45286;-59
2021/08/06 01:16:49;;;;;;;;;4.75;3.00;;;;;19.64;80.29;100011.09;5060073;28;45402;-59
2021/08/06 01:19:25;;;;;;;;;4.25;3.50;;;;;19.63;80.69;100012.91;5059659;28;46287;-59
2021/08/06 01:22:00;;;;;;;;;2.00;2.00;;;;;19.61;80.59;100012.16;5059268;28;45398;-59
2021/08/06 01:24:32;;;;;;;;;2.50;2.50;;;;;19.57;80.84;100010.72;5059697;28;45250;-59
2021/08/06 01:26:58;;;;;;;;;4.00;3.00;;;;;19.58;80.90;100004.50;5059636;28;45373;-59
2021/08/06 01:29:24;;;;;;;;;5.75;2.75;;;;;19.55;80.35;100012.63;5059170;28;45481;-59
2021/08/06 01:31:49;;;;;;;;;2.50;1.00;;;;;19.58;80.01;100003.66;5059777;28;45443;-59
2021/08/06 01:34:15;;;;;;;;;2.00;2.00;;;;;19.64;80.02;100014.59;5059597;28;45279;-59
2021/08/06 01:36:40;;;;;;;;;4.00;2.00;;;;;19.69;79.77;100012.44;5059647;28;45430;-60
2021/08/06 01:39:06;;;;;;;;;3.00;2.00;;;;;19.70;79.63;100008.84;5059436;28;46144;-59
2021/08/06 01:42:24;;;;;;;;;1.50;1.25;;;;;19.70;78.97;100000.91;5051412;28;45580;-59
2021/08/06 01:44:54;;;;;;;;;4.00;2.00;;;;;19.74;79.09;100007.63;4991245;28;45654;-59
2021/08/06 01:47:23;;;;;;;;;3.00;2.25;;;;;19.71;79.54;100007.88;5052999;28;45746;-61
2021/08/06 01:49:56;;;;;;;;;5.25;3.75;;;;;19.70;79.21;100000.09;5049144;28;45362;-61
2021/08/06 01:52:27;;;;;;;;;3.50;2.00;;;;;19.69;79.10;100001.88;5051776;28;45471;-61
2021/08/06 01:54:54;;;;;;;;;4.50;1.50;;;;;19.70;79.16;100000.09;5053638;28;45422;-60
2021/08/06 01:57:21;;;;;;;;;4.00;2.75;;;;;19.70;78.66;100008.84;5054241;28;45404;-60
2021/08/06 01:59:48;;;;;;;;;5.75;4.00;;;;;19.63;79.66;100014.72;5062595;28;45187;-60
2021/08/06 02:02:14;;;;;;;;;3.00;3.00;;;;;19.52;79.77;100007.56;5063230;28;45318;-60
2021/08/06 02:04:40;;;;;;;;;1.50;1.50;;;;;19.52;79.37;100002.28;5062840;28;45247;-59
2021/08/06 02:07:05;;;;;;;;;2.25;2.25;;;;;19.41;79.99;99997.00;5063029;28;45329;-60
2021/08/06 02:09:32;;;;;;;;;3.00;2.25;;;;;19.43;80.18;100003.84;5075400;28;46137;-60
2021/08/06 02:11:57;;;;;;;;;5.00;3.00;;;;;19.42;80.57;100011.84;5062356;28;45367;-61
2021/08/06 02:14:23;;;;;;;;;3.50;3.00;;;;;19.47;80.59;100009.72;5061063;28;45391;-62
2021/08/06 02:16:50;;;;;;;;;4.00;2.00;;;;;19.42;80.32;100006.56;5062317;28;45444;-62
2021/08/06 02:19:18;;;;;;;;;4.25;3.25;;;;;19.35;80.64;100015.91;5061204;28;46521;-60
2021/08/06 02:21:46;;;;;;;;;3.75;2.00;;;;;19.33;81.23;100017.81;5062283;28;45320;-60
2021/08/06 02:24:13;;;;;;;;;3.75;2.75;;;;;19.34;80.64;100019.50;5061941;28;45349;-59
2021/08/06 02:26:42;;;;;;;;;5.75;2.75;;;;;19.34;81.02;100015.06;5062590;28;45353;-59
2021/08/06 02:29:11;;;;;;;;;2.75;2.75;;;;;19.32;80.81;100019.63;5062130;28;46291;-60
2021/08/06 02:31:37;;;;;;;;;3.75;1.75;;;;;19.32;80.97;100018.78;5062719;28;45695;-59
2021/08/06 02:34:03;;;;;;;;;6.75;4.75;;;;;19.33;81.14;100016.03;5062487;28;45456;-59
2021/08/06 02:36:29;;;;;;;;;4.50;2.50;;;;;19.34;80.54;100022.97;5062451;28;45371;-59
2021/08/06 02:38:58;;;;;;;;;2.75;2.75;;;;;19.33;80.63;100018.66;5062216;28;46242;-62
2021/08/06 02:41:24;;;;;;;;;2.00;2.00;;;;;19.30;80.20;100021.53;5062505;28;45640;-63
2021/08/06 02:43:49;;;;;;;;;4.50;2.50;;;;;19.29;79.98;100025.13;5062014;28;45567;-62
2021/08/06 02:46:15;;;;;;;;;1.00;1.00;;;;;19.28;80.07;100027.88;5062011;28;45428;-62
2021/08/06 02:48:41;;;;;;;;;2.75;2.75;;;;;19.28;80.33;100028.72;5061999;28;45681;-63
2021/08/06 02:51:06;;;;;;;;;3.25;2.50;;;;;19.23;79.99;100022.13;5062301;28;45395;-62
2021/08/06 02:53:32;;;;;;;;;2.75;1.75;;;;;19.23;79.72;100022.13;5062026;28;45491;-62
2021/08/06 02:55:57;;;;;;;;;5.25;3.00;;;;;19.21;80.27;100039.81;5062211;28;45405;-62
2021/08/06 02:58:24;;;;;;;;;2.25;2.25;;;;;19.13;80.45;100032.47;5061645;28;45325;-61
2021/08/06 03:00:49;;;;;;;;;2.50;2.25;;;;;19.12;80.11;100036.91;5061815;28;45662;-60
2021/08/06 03:03:15;;;;;;;;;4.00;2.00;;;;;19.17;80.20;100048.91;5061918;28;45269;-65
2021/08/06 03:05:40;;;;;;;;;5.75;2.75;;;;;19.21;79.60;100035.38;5062195;28;45247;-62
2021/08/06 03:08:06;;;;;;;;;1.75;1.75;;;;;19.23;79.61;100048.47;5060685;28;45981;-63
2021/08/06 03:10:33;;;;;;;;;4.25;1.75;;;;;19.29;79.39;100053.25;5061856;28;45310;-63
2021/08/06 03:12:58;;;;;;;;;5.75;2.25;;;;;19.32;79.14;100045.97;5061395;28;45273;-62
2021/08/06 03:15:23;;;;;;;;;3.00;3.00;;;;;19.32;79.20;100056.50;5061472;28;45230;-62
2021/08/06 03:17:49;;;;;;;;;2.75;2.50;;;;;19.25;79.41;100046.56;5060244;28;46435;-61
2021/08/06 03:20:19;;;;;;;;;2.00;2.00;;;;;19.23;79.67;100048.47;5061853;28;45413;-61
2021/08/06 03:22:44;;;;;;;;;2.00;2.00;;;;;19.24;79.21;100058.88;5061630;28;45272;-62
2021/08/06 03:25:10;;;;;;;;;4.75;3.00;;;;;19.21;78.69;100048.53;5062245;28;45394;-62
2021/08/06 03:27:36;;;;;;;;;2.75;2.75;;;;;19.15;78.14;100041.94;5061124;28;47507;-62
2021/08/06 03:30:04;;;;;;;;;1.00;1.00;;;;;19.17;78.58;100043.63;5061247;28;45325;-62
2021/08/06 03:32:29;;;;;;;;;1.75;1.00;;;;;19.20;78.40;100059.19;5061570;28;45290;-63
2021/08/06 03:34:54;;;;;;;;;2.00;2.00;;;;;19.20;77.98;100051.28;5061469;28;45555;-62
2021/08/06 03:37:20;;;;;;;;;3.25;1.75;;;;;19.18;78.53;100058.47;5061265;28;45150;-62
2021/08/06 03:39:45;;;;;;;;;2.25;2.25;;;;;19.17;77.97;100060.28;5061292;28;45388;-63
2021/08/06 03:42:11;;;;;;;;;2.00;2.00;;;;;19.18;78.02;100066.38;5061375;28;45258;-63
2021/08/06 03:44:36;;;;;;;;;2.25;2.00;;;;;19.17;77.48;100072.59;5060872;28;45502;-63
2021/08/06 03:47:02;;;;;;;;;1.50;1.50;;;;;19.11;77.78;100072.09;5060815;28;46404;-65
2021/08/06 03:49:27;;;;;;;;;2.75;2.00;;;;;18.99;77.92;100058.97;5061309;28;45726;-65
2021/08/06 03:51:53;;;;;;;;;2.00;2.00;;;;;19.00;77.87;100058.03;5061326;28;45248;-64
2021/08/06 03:54:18;;;;;;;;;1.50;1.50;;;;;19.04;77.61;100055.09;5059646;28;45434;-66
2021/08/06 03:56:43;;;;;;;;;2.00;2.00;;;;;18.99;77.76;100067.72;5060623;28;45319;-63
2021/08/06 03:59:09;;;;;;;;;5.25;2.00;;;;;19.01;77.51;100065.81;5060844;28;45297;-63
2021/08/06 04:01:34;;;;;;;;;2.00;2.00;;;;;19.03;77.14;100063.09;5060886;28;45483;-64
2021/08/06 04:03:59;;;;;;;;;2.00;2.00;;;;;19.06;77.46;100068.13;5060762;28;45434;-64
2021/08/06 04:06:25;;;;;;;;;2.00;2.00;;;;;19.01;77.19;100057.06;5060579;28;45387;-62
2021/08/06 04:08:50;;;;;;;;;4.25;1.50;;;;;18.93;77.26;100062.91;5060877;28;45236;-62
2021/08/06 04:11:16;;;;;;;;;10.50;10.00;;;;;18.86;77.52;100064.31;5060416;28;45408;-63
2021/08/06 04:13:41;;;;;;;;;3.25;3.25;;;;;18.85;77.87;100075.81;5060470;28;45512;-65
2021/08/06 04:16:07;;;;;;;;;4.00;3.00;;;;;18.84;77.71;100074.13;5060129;28;45337;-65
2021/08/06 04:18:32;;;;;;;;;5.25;4.00;;;;;18.82;77.91;100084.78;5060762;28;45266;-64
2021/08/06 04:20:59;;;;;;;;;2.50;2.50;;;;;18.82;77.66;100082.13;5057599;28;45394;-65
2021/08/06 04:23:25;;;;;;;;;3.00;3.00;;;;;18.83;78.06;100080.34;5058477;28;45345;-65
2021/08/06 04:25:52;;;;;;;;;2.75;2.75;;;;;18.89;78.19;100076.41;5057579;28;46796;-65
2021/08/06 04:28:17;;;;;;;;;2.75;0.50;;;;;18.86;77.65;100069.59;5057988;28;45428;-64
2021/08/06 04:30:43;;;;;;;;;2.00;2.00;;;;;18.88;78.38;100080.00;5058187;28;45421;-64
2021/08/06 04:33:08;;;;;;;;;1.50;0.75;;;;;18.78;78.96;100085.09;5059194;28;45413;-64
2021/08/06 04:35:34;;;;;;;;;2.25;2.25;;;;;18.75;78.53;100086.16;5058125;28;47251;-64
2021/08/06 04:37:59;;;;;;;;;4.00;2.00;;;;;18.80;78.64;100102.44;5059751;28;45397;-64
2021/08/06 04:40:26;;;;;;;;;1.25;1.00;;;;;18.80;78.60;100096.34;5059143;28;45270;-64
2021/08/06 04:42:51;;;;;;;;;2.50;0.75;;;;;18.73;78.51;100097.75;5070709;28;45212;-64
2021/08/06 04:45:17;;;;;;;;;2.50;1.50;;;;;18.75;78.71;100109.00;5060077;28;45248;-65
2021/08/06 04:47:48;;;;;;;;;2.25;1.50;;;;;18.81;78.51;100112.03;5060236;28;45247;-65
2021/08/06 04:50:17;;;;;;;;;5.00;1.25;;;;;18.81;78.22;100116.44;5060258;28;45468;-65
2021/08/06 04:52:43;;;;;;;;;3.50;2.00;;;;;18.79;78.35;100105.19;5059819;28;45599;-65
2021/08/06 04:55:09;;;;;;;;;4.00;1.00;;;;;18.72;78.49;100110.06;5059778;28;45415;-65
2021/08/06 04:57:34;;;;;;;;;2.50;2.00;;;;;18.67;78.72;100121.88;5060184;28;45421;-65
2021/08/06 05:00:00;;;;;;;;;1.25;1.25;;;;;18.63;78.15;100108.09;5059802;28;45313;-65
2021/08/06 05:02:25;;;;;;;;;4.50;1.75;;;;;18.60;78.16;100107.41;5060059;28;45215;-65
2021/08/06 05:04:50;;;;;;;;;2.75;2.00;;;;;18.64;77.97;100120.31;5059317;28;45346;-64
2021/08/06 05:07:20;;;;;;;;;1.25;1.25;;;;;18.71;77.43;100121.53;5059951;28;45434;-64
2021/08/06 05:09:46;;;;;;;;;3.00;3.00;;;;;18.71;77.44;100128.59;5059734;28;45298;-64
2021/08/06 05:12:12;;;;;;;;;2.00;1.00;;;;;18.68;77.38;100120.91;5059362;28;45432;-64
2021/08/06 05:14:37;;;;;;;;;3.00;2.00;;;;;18.70;77.13;100125.13;5059030;28;45243;-64
2021/08/06 05:17:02;;;;;;;;;4.25;1.00;;;;;18.67;77.32;100124.50;5059999;28;45284;-64
2021/08/06 05:19:28;;;;;;;;;1.00;1.00;;;;;18.64;77.30;100127.34;5059966;28;45234;-64
2021/08/06 05:21:53;;;;;;;;;2.50;2.25;;;;;18.66;77.33;100120.19;5059929;28;45458;-64
2021/08/06 05:24:18;;;;;;;;;5.50;3.00;;;;;18.69;76.85;100127.88;5059303;28;46130;-64
2021/08/06 05:26:44;;;;;;;;;5.00;2.00;;;;;18.72;76.47;100123.22;5059451;28;45198;-64
2021/08/06 05:29:09;;;;;;;;;2.50;2.00;;;;;18.76;76.70;100135.22;5059550;28;45252;-64
2021/08/06 05:31:35;;;;;;;;;4.75;1.25;;;;;18.79;76.34;100126.25;5059071;28;45200;-64
2021/08/06 05:34:00;;;;;;;;;2.75;2.00;;;;;18.70;75.73;100124.28;5059308;28;45548;-65
2021/08/06 05:36:25;;;;;;;;;1.75;1.75;;;;;18.71;76.02;100126.81;5059675;28;45462;-64
2021/08/06 05:38:51;;;;;;;;;3.75;2.25;;;;;18.75;76.09;100128.25;5059707;28;45339;-64
2021/08/06 05:41:16;;;;;;;;;3.00;1.50;;;;;18.82;75.84;100124.25;5059438;28;45496;-63
2021/08/06 05:43:42;;;;;;;;;1.75;1.00;;;;;18.85;75.29;100133.72;5059313;28;46029;-63
2021/08/06 05:46:07;;;;;;;;;2.00;1.75;;;;;18.85;75.26;100123.19;5059139;28;45297;-63
2021/08/06 05:48:32;;;;;;;;;3.25;2.00;;;;;18.87;75.48;100131.81;5059534;28;45375;-64
2021/08/06 05:50:58;;;;;;;;;0.50;0.50;;;;;18.88;75.13;100130.88;5059659;28;45481;-64
2021/08/06 05:53:23;;;;;;;;;3.00;1.50;;;;;18.82;75.29;100137.44;5059051;28;46918;-64
2021/08/06 05:55:49;;;;;;;;;1.25;1.25;;;;;18.84;75.15;100137.31;5059527;28;45325;-65
2021/08/06 05:58:14;;;;;;;;;4.50;0.75;;;;;18.83;75.10;100133.84;5058933;28;45294;-65
2021/08/06 06:00:40;;;;;;;;;3.00;1.75;;;;;18.85;74.96;100133.72;5059291;28;45616;-65
2021/08/06 06:03:05;;;;;;;;;3.75;2.00;;;;;18.86;75.13;100137.22;5059292;28;45243;-64
2021/08/06 06:05:30;;;;;;;;;5.50;2.75;;;;;18.92;75.20;100134.13;5059378;28;45328;-65
2021/08/06 06:07:55;;;;;;;;;7.75;4.00;;;;;19.02;75.04;100135.13;5059168;28;45286;-65
2021/08/06 06:10:22;;;;;;;;;17.75;10.00;;;;;19.10;74.76;100143.34;5059275;28;45398;-65
2021/08/06 06:12:49;;;;;;;;;3.25;1.00;;;;;19.20;74.32;100128.53;5057957;28;46303;-65
2021/08/06 06:15:15;;;;;;;;;1.50;0.50;;;;;19.25;74.21;100130.84;5058104;28;45575;-64
2021/08/06 06:17:40;;;;;;;;;3.00;1.00;;;;;19.30;74.25;100139.25;5058011;28;45399;-65
2021/08/06 06:20:06;;;;;;;;;2.50;2.00;;;;;19.35;74.21;100147.66;5058413;28;45549;-65
2021/08/06 06:22:32;;;;;;;;;2.75;2.50;;;;;19.36;74.21;100150.16;5057605;28;47137;-65
2021/08/06 06:24:58;;;;;;;;;2.75;2.25;;;;;19.42;74.46;100156.78;5058384;28;45354;-64
2021/08/06 06:27:23;;;;;;;;;1.00;0.75;;;;;19.38;74.40;100152.69;5057672;28;45240;-64
2021/08/06 06:29:49;;;;;;;;;2.50;2.50;;;;;19.39;74.83;100149.09;5058339;28;45453;-64
2021/08/06 06:32:14;;;;;;;;;9.50;2.25;;;;;19.50;74.44;100154.44;5058246;28;45282;-64
2021/08/06 06:34:39;;;;;;;;;0.00;0.00;;;;;19.60;74.11;100147.53;5058813;28;45378;-64
2021/08/06 06:37:05;;;;;;;;;2.50;1.00;;;;;19.67;73.60;100140.88;5058804;28;45577;-64
2021/08/06 06:39:30;;;;;;;;;7.00;5.00;;;;;19.71;73.84;100144.13;5059019;28;45386;-64
2021/08/06 06:41:55;;;;;;;;;2.25;1.25;;;;;19.68;73.36;100150.47;5059593;28;46561;-64
2021/08/06 06:44:21;;;;;;;;;3.25;2.75;;;;;19.68;73.05;100157.53;5062248;28;45199;-64
2021/08/06 06:46:46;;;;;;;;;3.75;1.25;;;;;19.63;73.48;100157.06;5060723;28;45246;-64
2021/08/06 06:49:12;;;;;;;;;1.00;0.75;;;;;19.65;73.76;100161.25;5062695;28;45149;-64
2021/08/06 06:51:38;;;;;;;;;0.75;0.75;;;;;19.73;73.36;100156.22;5061826;28;45446;-64
2021/08/06 06:54:03;;;;;;;;;1.25;1.25;;;;;19.79;72.93;100164.63;5062160;28;45322;-64
2021/08/06 06:56:29;;;;;;;;;3.00;1.50;;;;;19.88;73.28;100170.06;5062252;28;45311;-65
2021/08/06 06:58:54;;;;;;;;;2.75;2.75;;;;;19.94;72.50;100169.59;5062001;28;45490;-65
2021/08/06 07:01:19;;;;;;;;;6.00;3.00;;;;;19.84;72.74;100176.53;5062057;28;45516;-64
2021/08/06 07:03:45;;;;;;;;;5.00;2.00;;;;;19.85;72.52;100169.47;5062270;28;45420;-64
2021/08/06 07:06:10;;;;;;;;;1.75;1.00;;;;;19.86;72.44;100158.81;5062035;28;45164;-64
2021/08/06 07:08:38;;;;;;;;;1.00;1.00;;;;;19.85;72.30;100169.47;5061738;28;45350;-64
2021/08/06 07:11:04;;;;;;;;;8.00;7.50;;;;;19.93;72.35;100175.00;5061941;28;45320;-65
2021/08/06 07:13:30;;;;;;;;;1.75;1.75;;;;;19.93;72.36;100185.53;5061785;28;45665;-65
2021/08/06 07:15:55;;;;;;;;;1.00;0.75;;;;;19.89;72.93;100187.56;5061792;28;45365;-65
2021/08/06 07:18:21;;;;;;;;;2.00;2.00;;;;;19.87;72.44;100189.50;5062071;28;45508;-64
2021/08/06 07:20:46;;;;;;;;;3.75;0.75;;;;;19.82;72.78;100177.59;5061808;28;45172;-64
2021/08/06 07:23:11;;;;;;;;;6.50;0.75;;;;;19.83;72.52;100193.31;5062385;28;45215;-65
2021/08/06 07:25:37;;;;;;;;;1.00;1.00;;;;;19.81;72.79;100186.44;5061358;28;45215;-64
2021/08/06 07:28:02;;;;;;;;;6.50;4.75;;;;;19.84;72.79;100199.44;5061924;28;45488;-64
2021/08/06 07:30:28;;;;;;;;;3.25;1.00;;;;;19.91;72.59;100200.66;5061672;28;47590;-66
2021/08/06 07:32:53;;;;;;;;;2.75;0.75;;;;;19.96;72.36;100199.34;5061826;28;45283;-62
2021/08/06 07:35:21;;;;;;;;;2.50;1.00;;;;;20.00;72.34;100187.59;5061574;28;45313;-63
2021/08/06 07:37:46;;;;;;;;;1.25;0.75;;;;;20.07;72.04;100195.06;5061643;28;45341;-62
2021/08/06 07:40:13;;;;;;;;;4.25;1.00;;;;;20.18;72.21;100201.19;5060969;28;45338;-60
2021/08/06 07:42:39;;;;;;;;;3.75;2.00;;;;;20.22;71.47;100199.16;5068446;28;45383;-64
2021/08/06 07:45:05;;;;;;;;;2.50;1.00;;;;;20.23;71.37;100209.63;5062941;28;45643;-60
2021/08/06 07:47:31;;;;;;;;;4.75;1.00;;;;;20.24;71.54;100205.19;5061293;28;45295;-66
2021/08/06 07:49:57;;;;;;;;;3.00;0.75;;;;;20.29;71.41;100203.03;5059689;28;47241;-64
2021/08/06 07:52:22;;;;;;;;;2.00;1.00;;;;;20.27;71.95;100204.94;5061169;28;45291;-64
2021/08/06 07:54:48;;;;;;;;;1.25;1.25;;;;;20.27;71.53;100207.59;5054237;28;45548;-65
2021/08/06 07:57:13;;;;;;;;;1.50;1.00;;;;;20.24;72.70;100213.94;5055059;28;45464;-65
2021/08/06 07:59:39;;;;;;;;;2.25;1.00;;;;;20.23;72.31;100212.25;5060881;28;45211;-63
2021/08/06 08:02:05;;;;;;;;;1.75;1.00;;;;;20.19;71.97;100215.22;5060977;28;45351;-63
2021/08/06 08:04:31;;;;;;;;;5.00;0.50;;;;;20.17;72.27;100219.78;5061070;28;45416;-63
2021/08/06 08:06:56;;;;;;;;;3.00;1.75;;;;;20.14;72.02;100217.38;5056393;28;46615;-63
2021/08/06 08:09:21;;;;;;;;;0.00;0.00;;;;;20.13;72.12;100228.88;5057661;28;45413;-64
2021/08/06 08:11:47;;;;;;;;;3.25;1.25;;;;;20.13;71.80;100226.25;5060402;28;45378;-63
2021/08/06 08:14:12;;;;;;;;;1.00;1.00;;;;;20.16;72.15;100228.66;5059690;28;45313;-62
2021/08/06 08:16:38;;;;;;;;;1.25;1.00;;;;;20.10;72.37;100232.59;5060233;28;45341;-62
2021/08/06 08:19:03;;;;;;;;;1.50;1.50;;;;;19.91;72.74;100234.94;5059589;28;45270;-62
2021/08/06 08:21:28;;;;;;;;;0.75;0.75;;;;;19.91;73.30;100237.56;5060509;28;45232;-62
2021/08/06 08:23:54;;;;;;;;;3.25;0.75;;;;;20.05;73.29;100243.50;5060219;28;45492;-62
2021/08/06 08:26:20;;;;;;;;;1.00;1.00;;;;;20.17;72.49;100231.16;5060057;28;45247;-60
2021/08/06 08:28:46;;;;;;;;;3.25;1.00;;;;;20.24;71.91;100224.50;5059161;28;46341;-61
2021/08/06 08:31:11;;;;;;;;;2.25;1.75;;;;;20.21;71.72;100222.06;5060336;28;45383;-62
2021/08/06 08:33:36;;;;;;;;;3.00;1.00;;;;;20.25;72.01;100234.09;5058741;28;45319;-62
2021/08/06 08:36:02;;;;;;;;;1.00;1.00;;;;;20.28;72.19;100233.84;5060561;28;46061;-64
2021/08/06 08:38:27;;;;;;;;;0.75;0.75;;;;;20.39;71.90;100230.38;5059431;28;46291;-62
2021/08/06 08:40:55;;;;;;;;;0.00;0.00;;;;;20.54;71.96;100234.53;5059881;28;45254;-64
2021/08/06 08:43:20;;;;;;;;;1.25;1.25;;;;;20.72;71.31;100239.34;5059845;28;45206;-61
2021/08/06 08:45:47;;;;;;;;;2.00;2.00;;;;;20.82;70.57;100230.59;5059497;28;45568;-60
2021/08/06 08:48:13;;;;;;;;;3.75;2.00;;;;;20.94;69.33;100240.19;5060434;28;46153;-59
2021/08/06 08:50:40;;;;;;;;;0.50;0.00;;;;;20.89;68.66;100246.81;5060231;28;45267;-59
2021/08/06 08:53:07;;;;;;;;;1.25;1.00;;;;;20.81;69.08;100250.03;5060406;28;45242;-58
2021/08/06 08:55:33;;;;;;;;;1.00;1.00;;;;;20.74;68.99;100246.19;5060109;28;45663;-60
2021/08/06 08:57:58;;;;;;;;;1.75;1.00;;;;;20.75;69.67;100245.22;5059928;28;45238;-62
2021/08/06 09:00:24;;;;;;;;;2.00;1.25;;;;;20.82;68.65;100251.72;5052863;28;45228;-62
2021/08/06 09:02:49;;;;;;;;;1.00;0.00;;;;;20.87;68.65;100252.22;5051434;28;45289;-64
2021/08/06 09:05:17;;;;;;;;;1.75;1.75;;;;;20.88;68.35;100251.25;5050316;28;45575;-64
2021/08/06 09:07:43;;;;;;;;;2.00;1.75;;;;;20.75;68.40;100250.50;5050506;28;46114;-63
2021/08/06 09:10:12;;;;;;;;;4.00;1.00;;;;;20.68;68.70;100256.41;5053907;28;45577;-64
2021/08/06 09:13:04;;;;;;;;;1.00;1.00;;;;;20.70;68.54;100263.22;5050990;28;45509;-64
2021/08/06 09:15:42;;;;;;;;;2.25;2.25;;;;;20.80;68.77;100255.44;5047941;28;45289;-64
2021/08/06 09:18:23;;;;;;;;;4.75;2.00;;;;;21.16;71.68;100257.00;5051324;28;45517;-59
2021/08/06 09:20:48;;;;;;;;;3.00;2.00;;;;;21.57;68.72;100261.63;5050996;28;45319;-53
2021/08/06 09:23:46;;;;;;;;;2.75;1.50;;;;;21.80;66.70;100267.69;5051717;28;45920;-51
2021/08/06 09:26:26;;;;;;;;;2.00;1.25;;;;;21.92;65.52;100272.00;5048269;28;45425;-50
2021/08/06 09:29:04;;;;;;;;;1.50;0.75;;;;;21.87;64.02;100268.91;5055418;28;46743;-51
2021/08/06 09:31:31;;;;;;;;;1.50;1.00;;;;;21.96;65.44;100265.47;5058794;28;45311;-52
2021/08/06 09:34:07;;;;;;;;;2.50;1.50;;;;;22.22;65.42;100271.28;5050801;28;45222;-50
2021/08/06 09:36:33;;;;;;;;;2.50;1.00;;;;;22.32;63.59;100284.59;5052606;28;45589;-49
2021/08/06 09:39:12;;;;;;;;;0.75;0.75;;;;;22.24;62.62;100266.72;5049582;28;46872;-52
2021/08/06 09:41:42;;;;;;;;;2.25;1.00;;;;;21.90;63.14;100270.44;5048885;28;45386;-50
2021/08/06 09:44:26;;;;;;;;;3.50;1.75;;;;;21.80;63.68;100257.13;5052251;28;45401;-52
2021/08/06 09:46:53;;;;;;;;;1.50;1.50;;;;;21.90;65.41;100270.44;5054171;28;45454;-52
2021/08/06 09:49:19;;;;;;;;;1.50;1.50;;;;;22.11;64.11;100266.06;5050817;28;47024;-52
2021/08/06 09:51:48;;;;;;;;;4.50;4.50;;;;;22.26;63.41;100279.84;5050687;28;45415;-53
2021/08/06 09:54:22;;;;;;;;;1.00;1.00;;;;;22.40;63.37;100272.38;5053416;28;45500;-50
2021/08/06 09:57:05;;;;;;;;;3.50;1.50;;;;;22.48;62.14;100271.75;5050913;28;45595;-50
2021/08/06 09:59:32;;;;;;;;;1.00;0.25;;;;;22.50;61.58;100277.75;5051347;28;47416;-52
2021/08/06 10:02:20;;;;;;;;;1.75;1.25;;;;;22.52;61.25;100280.28;5051700;28;45461;-50
2021/08/06 10:04:59;;;;;;;;;1.50;1.00;;;;;22.74;63.29;100270.38;5052620;28;45623;-51
2021/08/06 10:07:27;;;;;;;;;2.50;1.00;;;;;23.10;62.63;100270.84;5051245;28;45507;-51
2021/08/06 10:09:53;;;;;;;;;1.00;1.00;;;;;23.24;59.05;100283.75;5049448;28;47209;-50
2021/08/06 10:12:18;;;;;;;;;1.00;1.00;;;;;23.32;60.08;100285.72;5051498;28;45315;-51
2021/08/06 10:14:43;;;;;;;;;1.00;1.00;;;;;23.37;60.34;100279.03;5049888;28;45360;-53
2021/08/06 10:17:10;;;;;;;;;1.00;1.00;;;;;23.56;60.35;100280.03;5051026;28;45563;-53
2021/08/06 10:19:36;;;;;;;;;2.00;1.00;;;;;23.42;58.02;100285.72;5055849;28;46181;-51
2021/08/06 10:22:01;;;;;;;;;6.75;5.75;;;;;23.15;60.30;100279.22;5054640;28;45423;-51
2021/08/06 10:24:27;;;;;;;;;2.25;2.00;;;;;23.21;60.98;100278.69;5062405;28;45256;-52
2021/08/06 10:26:53;;;;;;;;;7.50;3.25;;;;;23.32;60.32;100286.56;5059283;28;45429;-52
2021/08/06 10:29:22;;;;;;;;;7.50;4.00;;;;;23.35;58.92;100280.97;5054445;28;45382;-51
2021/08/06 10:32:23;;;;;;;;;1.75;1.00;;;;;23.12;60.15;100282.16;5053909;28;45693;-53
2021/08/06 10:35:07;;;;;;;;;6.25;4.00;;;;;23.10;59.27;100284.09;5012267;28;45373;-53
2021/08/06 10:38:03;;;;;;;;;4.00;3.50;;;;;23.08;59.39;100285.22;5053138;28;45468;-51
2021/08/06 10:40:31;;;;;;;;;6.00;4.00;;;;;23.39;61.12;100276.22;5049607;28;45629;-53
2021/08/06 10:42:57;;;;;;;;;8.25;6.50;;;;;23.69;59.89;100278.03;5049984;28;45513;-53
2021/08/06 10:45:45;;;;;;;;;6.00;4.00;;;;;24.05;60.98;100273.03;5054559;28;45477;-51
2021/08/06 10:48:37;;;;;;;;;7.75;6.00;;;;;24.12;56.33;100279.44;5052714;28;45592;-53
2021/08/06 10:51:14;;;;;;;;;5.50;5.50;;;;;24.04;56.47;100266.88;5050401;28;46368;-53
2021/08/06 10:53:44;;;;;;;;;14.25;6.75;;;;;23.88;57.47;100264.78;5051858;28;45306;-53
2021/08/06 10:56:18;;;;;;;;;1.50;1.50;;;;;23.69;55.43;100267.41;5055990;28;45413;-61
2021/08/06 10:58:53;;;;;;;;;5.00;2.00;;;;;23.29;56.97;100275.38;5060017;28;45236;-57
2021/08/06 11:01:24;;;;;;;;;3.00;2.00;;;;;22.95;57.70;100274.81;5055364;28;47373;-57
2021/08/06 11:03:53;;;;;;;;;4.50;4.50;;;;;22.63;60.46;100299.59;5054388;28;45656;-59
2021/08/06 11:06:31;;;;;;;;;7.75;4.50;;;;;22.46;61.37;100282.47;5061819;28;45353;-56
2021/08/06 11:08:56;;;;;;;;;4.25;3.50;;;;;22.47;62.15;100280.69;5052145;28;45394;-56
2021/08/06 11:12:00;;;;;;;;;10.00;8.00;;;;;22.58;61.16;100287.69;5061243;28;46220;-57
2021/08/06 11:14:29;;;;;;;;;8.00;4.25;;;;;22.66;61.08;100285.25;5060219;28;45704;-57
2021/08/06 11:17:06;;;;;;;;;4.75;1.75;;;;;22.72;60.17;100290.84;5061927;28;45664;-59
2021/08/06 11:19:36;;;;;;;;;1.00;1.00;;;;;;;;5060412;28;45519;-58
2021/08/06 11:22:25;;;;;;;;;4.50;2.25;;;;;23.10;60.05;100281.44;5061872;28;46177;-61
2021/08/06 11:25:00;;;;;;;;;2.00;1.25;;;;;23.41;57.32;100289.34;5046439;28;45622;-61
2021/08/06 11:27:37;;;;;;;;;6.00;3.00;;;;;23.41;57.09;100289.34;5061409;28;45428;-60
2021/08/06 11:30:07;;;;;;;;;9.75;8.00;;;;;23.47;58.09;100294.97;5058347;28;45434;-65